createdAt,value
2023-03-21T00:02:04.869Z,3.77
2023-03-21T00:04:48.342Z,3.83
2023-03-21T00:07:19.464Z,3.92
2023-03-21T00:09:48.254Z,4.04
2023-03-21T00:12:17.034Z,4.13
2023-03-21T00:14:46.070Z,4.13
2023-03-21T00:17:17.134Z,4.10
2023-03-21T00:19:46.439Z,4.17
2023-03-21T00:22:16.034Z,4.35
2023-03-21T00:24:45.516Z,4.54
2023-03-21T00:27:42.556Z,4.67
2023-03-21T00:30:03.352Z,4.74
2023-03-21T00:32:35.646Z,4.75
2023-03-21T00:35:45.326Z,4.72
2023-03-21T00:37:57.470Z,4.72
2023-03-21T00:40:32.967Z,4.72
2023-03-21T00:43:03.805Z,4.73
2023-03-21T00:45:32.141Z,4.72
2023-03-21T00:48:02.112Z,4.70
2023-03-21T00:50:32.464Z,4.67
2023-03-21T00:53:01.267Z,4.68
2023-03-21T00:55:29.622Z,4.68
2023-03-21T00:58:02.221Z,4.67
2023-03-21T01:00:33.111Z,4.69
2023-03-21T01:03:17.462Z,4.73
2023-03-21T01:06:05.548Z,4.81
2023-03-21T01:08:50.702Z,4.99
2023-03-21T01:11:23.156Z,5.17
2023-03-21T01:13:57.884Z,5.29
2023-03-21T01:16:31.119Z,5.37
2023-03-21T01:19:04.743Z,5.42
2023-03-21T01:21:33.733Z,5.52
2023-03-21T01:24:02.371Z,5.57
2023-03-21T01:26:30.697Z,5.65
2023-03-21T09:37:59.085Z,15.68
2023-03-21T09:40:41.696Z,15.72
2023-03-21T09:43:20.683Z,15.74
2023-03-21T09:45:56.810Z,15.82
2023-03-21T09:48:39.584Z,15.91
2023-03-21T09:51:18.112Z,16.01
2023-03-21T09:53:50.877Z,16.01
2023-03-21T09:56:19.546Z,16.14
2023-03-21T09:58:53.198Z,16.39
2023-03-21T10:01:30.030Z,16.77
2023-03-21T10:04:02.863Z,17.11
2023-03-21T10:06:32.066Z,17.29
2023-03-21T10:09:07.542Z,17.37
2023-03-21T10:11:44.507Z,17.49
2023-03-21T10:14:20.093Z,17.52
2023-03-21T10:16:54.061Z,17.64
2023-03-21T10:19:23.517Z,17.80
2023-03-21T10:22:03.020Z,17.82
2023-03-21T10:24:35.642Z,18.04
2023-03-21T10:27:05.585Z,18.16
2023-03-21T10:29:42.387Z,18.21
2023-03-21T10:32:14.335Z,18.38
2023-03-21T10:34:46.056Z,18.41
2023-03-21T10:37:16.956Z,18.37
2023-03-21T10:39:48.318Z,18.38
2023-03-21T10:42:21.615Z,18.47
2023-03-21T10:44:52.167Z,18.65
2023-03-21T10:47:28.805Z,18.87
2023-03-21T10:50:08.507Z,18.88
2023-03-21T10:52:39.620Z,18.86
2023-03-21T10:55:21.624Z,18.78
2023-03-21T10:57:54.595Z,18.77
2023-03-21T11:00:26.532Z,18.75
2023-03-21T11:02:58.689Z,18.54
2023-03-21T11:05:34.961Z,18.27
2023-03-21T11:08:06.970Z,18.09
2023-03-21T11:10:39.031Z,17.95
2023-03-21T11:13:18.211Z,17.77
2023-03-21T11:15:54.195Z,17.60
2023-03-21T11:18:25.893Z,17.48
2023-03-21T11:20:56.405Z,17.35
2023-03-21T11:23:28.256Z,17.21
2023-03-21T11:25:58.414Z,17.07
2023-03-21T11:28:34.035Z,16.87
2023-03-21T11:31:04.770Z,16.77
2023-03-21T11:33:37.785Z,16.65
2023-03-21T11:36:07.791Z,16.60
2023-03-21T11:38:41.755Z,16.58
2023-03-21T11:41:10.454Z,16.59
2023-03-21T11:43:40.771Z,16.60
2023-03-21T11:46:11.460Z,16.66
2023-03-21T11:48:44.371Z,16.74
2023-03-21T11:51:23.431Z,16.82
2023-03-21T11:54:00.130Z,16.90
2023-03-21T11:56:36.534Z,16.90
2023-03-21T11:59:33.078Z,17.00
2023-03-21T12:02:22.176Z,17.06
2023-03-21T12:04:56.017Z,17.06
2023-03-21T12:07:34.661Z,17.09
2023-03-21T12:10:16.564Z,17.15
2023-03-21T12:12:55.488Z,17.19
2023-03-21T12:15:27.882Z,17.19
2023-03-21T12:18:05.574Z,17.19
2023-03-21T12:20:43.592Z,17.14
2023-03-21T12:23:27.393Z,17.10
2023-03-21T12:26:02.123Z,17.03
2023-03-21T12:28:38.588Z,16.98
2023-03-21T12:31:14.349Z,16.97
2023-03-21T12:33:51.713Z,16.96
2023-03-21T12:36:41.675Z,16.94
2023-03-21T12:39:21.116Z,16.94
2023-03-21T12:42:02.069Z,16.97
2023-03-21T12:44:36.053Z,16.99
2023-03-21T12:47:09.071Z,16.95
2023-03-21T12:49:43.007Z,16.90
2023-03-21T12:52:18.295Z,16.85
2023-03-21T12:54:52.020Z,16.79
2023-03-21T12:57:24.078Z,16.73
2023-03-21T12:59:57.151Z,16.67
2023-03-21T13:02:31.867Z,16.60
2023-03-21T13:05:07.470Z,16.55
2023-03-21T13:07:41.012Z,16.51
2023-03-21T13:10:15.695Z,16.49
2023-03-21T13:12:56.878Z,16.52
2023-03-21T13:15:44.961Z,16.53
2023-03-21T13:18:22.565Z,16.52
2023-03-21T13:20:54.615Z,16.51
2023-03-21T13:23:25.379Z,16.51
2023-03-21T13:25:57.195Z,16.49
2023-03-21T13:28:29.791Z,16.50
2023-03-21T13:31:20.187Z,16.49
2023-03-21T13:33:50.784Z,16.52
2023-03-21T13:36:26.192Z,16.56
2023-03-21T13:39:01.926Z,16.58
2023-03-21T13:41:37.204Z,16.66
2023-03-21T13:44:21.001Z,16.75
2023-03-21T13:46:56.395Z,16.84
2023-03-21T13:49:35.302Z,16.95
2023-03-21T13:52:27.399Z,17.10
2023-03-21T13:54:58.490Z,17.19
2023-03-21T13:57:40.664Z,17.24
2023-03-21T14:36:09.153Z,16.76
2023-03-21T14:38:40.765Z,16.73
2023-03-21T14:41:24.534Z,16.70
2023-03-21T14:44:25.554Z,16.68
2023-03-21T14:46:55.812Z,16.61
2023-03-21T14:49:28.488Z,16.50
2023-03-21T14:51:59.627Z,16.43
2023-03-21T14:54:29.014Z,16.34
2023-03-21T14:57:02.878Z,16.34
2023-03-21T14:59:36.372Z,16.34
2023-03-21T15:02:11.195Z,16.33
2023-03-21T15:04:43.405Z,16.32
2023-03-21T15:07:26.452Z,16.32
2023-03-21T15:09:56.648Z,16.27
2023-03-21T15:12:26.869Z,16.28
2023-03-21T15:14:56.068Z,16.21
2023-03-21T15:17:26.169Z,16.14
2023-03-21T15:19:54.747Z,16.05
2023-03-21T15:22:29.629Z,15.96
2023-03-21T15:25:01.643Z,15.79
2023-03-21T15:27:35.318Z,15.60
2023-03-21T15:30:04.306Z,15.45
2023-03-21T15:32:38.360Z,15.32
2023-03-21T15:35:14.589Z,15.22
2023-03-21T15:37:43.112Z,15.10
2023-03-21T15:40:20.413Z,14.95
2023-03-21T15:42:50.645Z,14.85
2023-03-21T15:45:22.973Z,14.80
2023-03-21T15:47:56.802Z,14.78
2023-03-21T15:50:34.767Z,14.77
2023-03-21T15:53:06.829Z,14.71
2023-03-21T15:55:48.299Z,14.64
2023-03-21T15:58:20.701Z,14.56
2023-03-21T16:00:55.118Z,14.45
2023-03-21T16:03:27.721Z,14.38
2023-03-21T16:06:10.636Z,14.29
2023-03-21T16:08:44.765Z,14.18
2023-03-21T16:11:20.183Z,14.07
2023-03-21T16:13:51.684Z,13.93
2023-03-21T16:16:21.857Z,13.79
2023-03-21T16:18:51.771Z,13.62
2023-03-21T16:21:22.776Z,13.49
2023-03-21T16:23:51.979Z,13.34
2023-03-21T16:26:22.422Z,13.21
2023-03-21T16:28:58.227Z,13.15
2023-03-21T16:31:28.828Z,13.10
2023-03-21T16:33:57.871Z,13.09
2023-03-21T16:36:29.360Z,13.08
2023-03-21T16:39:02.293Z,13.04
2023-03-21T16:41:33.731Z,12.99
2023-03-21T16:44:03.530Z,12.83
2023-03-21T16:46:32.298Z,12.67
2023-03-21T16:49:01.392Z,12.56
2023-03-21T16:51:38.743Z,12.47
2023-03-21T16:54:07.392Z,12.38
2023-03-21T16:56:39.811Z,12.29
2023-03-21T16:59:13.110Z,12.18
2023-03-21T17:01:42.381Z,12.12
2023-03-21T17:04:11.281Z,12.03
2023-03-21T17:06:45.814Z,11.97
2023-03-21T17:09:16.066Z,11.89
2023-03-21T17:11:45.405Z,11.83
2023-03-21T17:14:22.332Z,11.81
2023-03-21T17:16:50.790Z,11.77
2023-03-21T17:19:22.115Z,11.67
2023-03-21T17:21:51.405Z,11.59
2023-03-21T17:24:20.393Z,11.51
2023-03-21T17:26:48.791Z,11.51
2023-03-21T17:29:17.850Z,11.47
2023-03-21T17:31:50.384Z,11.39
2023-03-21T17:34:19.491Z,11.32
2023-03-21T17:36:49.327Z,11.24
2023-03-21T17:39:22.829Z,11.16
2023-03-21T17:41:52.289Z,11.06
2023-03-21T17:44:26.013Z,10.97
2023-03-21T17:46:56.123Z,10.87
2023-03-21T17:49:26.034Z,10.74
2023-03-21T17:51:55.147Z,10.62
2023-03-21T17:54:24.404Z,10.50
2023-03-21T17:56:53.537Z,10.42
2023-03-21T17:59:22.327Z,10.33
2023-03-21T18:01:51.284Z,10.23
2023-03-21T18:04:22.275Z,10.25
2023-03-21T18:06:51.558Z,10.19
2023-03-21T18:09:22.845Z,10.12
2023-03-21T18:11:51.263Z,10.10
2023-03-21T18:14:27.064Z,10.15
2023-03-21T18:16:57.565Z,10.13
2023-03-21T18:19:28.410Z,10.09
2023-03-21T18:22:02.136Z,9.97
2023-03-21T18:24:30.624Z,9.82
2023-03-21T18:27:01.162Z,9.66
2023-03-21T18:32:19.160Z,9.38
2023-03-21T18:34:49.393Z,9.25
2023-03-21T18:37:18.448Z,9.11
2023-03-21T18:39:47.269Z,8.98
2023-03-21T18:42:20.451Z,8.89
2023-03-21T18:44:52.212Z,8.81
2023-03-21T18:47:21.634Z,8.73
2023-03-21T18:50:13.126Z,8.65
2023-03-21T18:52:42.073Z,8.55
2023-03-21T18:55:11.947Z,8.55
2023-03-21T18:57:40.791Z,8.47
2023-03-21T19:00:13.601Z,8.37
2023-03-21T19:02:47.042Z,8.29
2023-03-21T19:05:19.662Z,8.26
2023-03-21T19:07:49.647Z,8.18
2023-03-21T19:10:23.042Z,8.24
2023-03-21T19:12:53.212Z,8.26
2023-03-21T19:15:24.134Z,8.38
2023-03-21T19:18:33.099Z,8.35
2023-03-21T19:20:46.998Z,8.30
2023-03-21T19:23:17.409Z,8.24
2023-03-21T19:25:46.934Z,8.19
2023-03-21T19:28:15.864Z,8.15
2023-03-21T19:30:50.356Z,8.12
2023-03-21T19:33:20.045Z,8.08
2023-03-21T19:36:08.881Z,8.05
2023-03-21T19:38:39.651Z,8.04
2023-03-21T19:41:08.615Z,7.99
2023-03-21T19:43:39.882Z,7.97
2023-03-21T19:46:09.144Z,7.99
2023-03-21T19:48:38.675Z,7.96
2023-03-21T19:51:26.964Z,7.96
2023-03-21T19:53:57.141Z,8.04
2023-03-21T19:56:27.575Z,8.06
2023-03-21T19:58:56.732Z,8.05
2023-03-21T20:01:26.695Z,8.02
2023-03-21T20:03:55.694Z,8.01
2023-03-21T20:06:26.969Z,8.07
2023-03-21T20:11:44.764Z,8.13
2023-03-21T20:14:13.558Z,8.14
2023-03-21T20:16:43.710Z,8.15
2023-03-21T20:19:16.178Z,8.13
2023-03-21T20:21:52.888Z,8.12
2023-03-21T20:24:23.339Z,8.08
2023-03-21T20:26:53.755Z,8.11
2023-03-21T20:32:11.695Z,8.07
2023-03-21T20:34:41.386Z,8.10
2023-03-21T20:37:12.393Z,8.21
2023-03-21T20:39:41.270Z,8.24
2023-03-21T20:42:09.989Z,8.28
2023-03-21T20:44:56.331Z,8.34
2023-03-21T20:47:26.438Z,8.39
2023-03-21T20:49:56.837Z,8.40
2023-03-21T20:55:16.231Z,8.35
2023-03-21T20:57:46.085Z,8.28
2023-03-21T21:00:18.243Z,8.22
2023-03-21T21:02:51.225Z,8.21
2023-03-21T21:05:35.427Z,8.13
2023-03-21T21:08:06.046Z,8.04
2023-03-21T21:10:42.493Z,7.95
2023-03-21T21:13:22.531Z,7.88
2023-03-21T21:15:52.408Z,7.78
2023-03-21T21:18:22.023Z,7.70
2023-03-21T21:20:55.096Z,7.57
2023-03-21T21:23:26.712Z,7.49
2023-03-21T21:25:56.645Z,7.39
2023-03-21T21:28:29.536Z,7.26
2023-03-21T21:30:59.583Z,7.14
2023-03-21T21:33:29.387Z,7.07
2023-03-21T21:35:58.450Z,7.04
2023-03-21T21:38:28.665Z,7.00
2023-03-21T21:41:00.987Z,6.92
2023-03-21T21:43:30.242Z,6.79
2023-03-21T21:45:59.424Z,6.67
2023-03-21T21:48:28.079Z,6.59
2023-03-21T21:50:56.707Z,6.53
2023-03-21T21:53:28.402Z,6.47
2023-03-21T21:55:58.612Z,6.50
2023-03-21T21:58:27.189Z,6.47
2023-03-21T22:01:01.065Z,6.45
2023-03-21T22:03:36.518Z,6.44
2023-03-21T22:06:05.701Z,6.41
2023-03-21T22:08:34.701Z,6.33
2023-03-21T22:11:06.592Z,6.23
2023-03-21T22:13:35.522Z,6.15
2023-03-21T22:16:03.995Z,6.12
2023-03-21T22:18:36.037Z,6.08
2023-03-21T22:21:06.238Z,6.02
2023-03-21T22:23:35.175Z,5.97
2023-03-21T22:26:06.308Z,5.95
2023-03-21T22:28:35.127Z,5.92
2023-03-21T22:31:09.790Z,5.86
2023-03-21T22:33:39.582Z,5.84
2023-03-21T22:36:09.226Z,5.91
2023-03-21T22:38:38.247Z,5.96
2023-03-21T22:41:08.722Z,5.92
2023-03-21T22:43:37.608Z,5.94
2023-03-21T22:46:07.457Z,5.95
2023-03-21T22:48:36.220Z,5.97
2023-03-21T22:51:05.412Z,6.04
2023-03-21T22:53:33.740Z,6.08
2023-03-21T22:56:02.544Z,6.06
2023-03-21T22:58:32.636Z,6.04
2023-03-21T23:01:05.350Z,5.98
2023-03-21T23:03:33.970Z,5.96
2023-03-21T23:06:02.318Z,5.93
2023-03-21T23:08:31.657Z,5.91
2023-03-21T23:11:00.508Z,5.94
2023-03-21T23:13:29.765Z,5.98
2023-03-21T23:16:04.560Z,5.99
2023-03-21T23:18:33.901Z,6.03
2023-03-21T23:21:02.365Z,6.05
2023-03-21T23:23:31.282Z,6.00
2023-03-21T23:26:00.420Z,5.98
2023-03-21T23:28:29.243Z,5.97
2023-03-21T23:30:59.709Z,5.98
2023-03-21T23:33:28.509Z,5.96
2023-03-21T23:35:56.998Z,5.84
2023-03-21T23:38:26.249Z,5.75
2023-03-21T23:40:54.656Z,5.69
2023-03-21T23:43:24.398Z,5.65
2023-03-21T23:45:53.252Z,5.58
2023-03-21T23:48:24.981Z,5.57
2023-03-21T23:50:53.518Z,5.55
2023-03-21T23:53:22.440Z,5.53
2023-03-21T23:55:52.013Z,5.51
2023-03-21T23:58:22.283Z,5.47
